Time;durP1;ratioP1;P1;durP2;ratioP2;P2;SDS_P1;SDS_P2;PMS_P1;PMS_P2;Temp;Humidity;BMP_temperature;BMP_pressure;BME280_temperature;BME280_humidity;BME280_pressure;Samples;Min_cycle;Max_cycle;Signal;HPM_P1;HPM_P2
2022/03/24 00:01:28;;;;;;;25.23;16.90;;;7.50;99.90;;;;;;5048112;28;20862;-88
2022/03/24 00:03:54;;;;;;;26.57;16.00;;;7.50;99.90;;;;;;5029707;28;20328;-86
2022/03/24 00:06:20;;;;;;;26.20;16.47;;;7.50;99.90;;;;;;5063487;28;20221;-85
2022/03/24 00:08:46;;;;;;;21.77;13.27;;;7.50;99.90;;;;;;5038969;28;20213;-86
2022/03/24 00:11:12;;;;;;;29.80;14.60;;;7.40;99.90;;;;;;5065361;28;20216;-87
2022/03/24 00:13:38;;;;;;;38.40;19.60;;;7.50;99.90;;;;;;5066069;28;20729;-84
2022/03/24 00:16:04;;;;;;;34.47;18.27;;;7.40;99.90;;;;;;5080405;28;20229;-85
2022/03/24 00:18:32;;;;;;;46.43;20.77;;;7.40;99.90;;;;;;5064858;28;20294;-86
2022/03/24 00:21:02;;;;;;;30.70;16.70;;;7.40;99.90;;;;;;5030622;28;20225;-84
2022/03/24 00:23:28;;;;;;;26.93;17.20;;;7.40;99.90;;;;;;5064105;28;20677;-84
2022/03/24 00:25:54;;;;;;;33.67;16.30;;;7.40;99.90;;;;;;5063717;28;20308;-87
2022/03/24 00:28:20;;;;;;;36.63;19.17;;;7.40;99.90;;;;;;5064768;28;20229;-87
2022/03/24 00:30:46;;;;;;;36.17;22.63;;;7.30;99.90;;;;;;5063516;28;20604;-86
2022/03/24 00:33:12;;;;;;;29.30;18.13;;;7.40;99.90;;;;;;5079816;28;20217;-84
2022/03/24 00:35:38;;;;;;;33.70;19.73;;;7.30;99.90;;;;;;5046269;28;20659;-85
2022/03/24 00:38:05;;;;;;;37.43;19.63;;;7.30;99.90;;;;;;5064438;28;20185;-85
2022/03/24 00:40:31;;;;;;;39.97;19.27;;;7.30;99.90;;;;;;5037875;28;20910;-88
2022/03/24 00:42:59;;;;;;;35.43;16.10;;;7.20;99.90;;;;;;5079667;28;20251;-85
2022/03/24 00:45:25;;;;;;;32.87;19.30;;;7.20;99.90;;;;;;5046413;28;20225;-85
2022/03/24 00:47:52;;;;;;;32.57;17.73;;;7.20;99.90;;;;;;5063873;28;20366;-86
2022/03/24 00:50:18;;;;;;;35.20;21.60;;;7.20;99.90;;;;;;5080131;28;20240;-86
2022/03/24 00:52:45;;;;;;;31.77;17.77;;;7.20;99.90;;;;;;5064975;28;20649;-85
2022/03/24 00:55:16;;;;;;;34.30;20.60;;;7.30;99.90;;;;;;5062628;28;20286;-84
2022/03/24 00:57:45;;;;;;;37.17;22.37;;;7.20;99.90;;;;;;5080040;28;20219;-89
2022/03/24 01:00:16;;;;;;;29.97;17.93;;;7.20;99.90;;;;;;5079663;28;20670;-84
2022/03/24 01:02:43;;;;;;;31.73;16.40;;;7.20;99.90;;;;;;5046252;28;20220;-84
2022/03/24 01:05:10;;;;;;;26.67;15.97;;;7.10;99.90;;;;;;5079343;28;20195;-87
2022/03/24 01:07:35;;;;;;;35.67;18.57;;;7.00;99.90;;;;;;5046501;28;20216;-84
2022/03/24 01:10:03;;;;;;;34.73;21.40;;;6.90;99.90;;;;;;5079412;28;20294;-85
2022/03/24 01:12:29;;;;;;;35.90;20.43;;;6.90;99.90;;;;;;5045784;28;20381;-89
2022/03/24 01:14:58;;;;;;;32.00;20.63;;;6.90;99.90;;;;;;5079325;28;20217;-85
2022/03/24 01:17:26;;;;;;;31.50;18.20;;;6.90;99.90;;;;;;5065173;28;20326;-91
2022/03/24 01:19:52;;;;;;;35.80;20.10;;;7.00;99.90;;;;;;5068580;28;20189;-83
2022/03/24 01:22:18;;;;;;;30.97;15.93;;;7.00;99.90;;;;;;5066401;28;20224;-83
2022/03/24 01:24:45;;;;;;;33.07;18.03;;;7.00;99.90;;;;;;5068112;28;20217;-87
2022/03/24 01:27:12;;;;;;;30.40;15.77;;;7.00;99.90;;;;;;5050935;28;20220;-83
2022/03/24 01:29:38;;;;;;;35.03;16.33;;;6.90;99.90;;;;;;5066799;28;20220;-86
2022/03/24 01:32:04;;;;;;;32.03;20.37;;;7.00;99.90;;;;;;5049639;28;20217;-83
2022/03/24 01:34:30;;;;;;;34.97;17.83;;;7.00;99.90;;;;;;5068609;28;20204;-84
2022/03/24 01:36:56;;;;;;;36.60;22.27;;;7.00;99.90;;;;;;5066216;28;20217;-86
2022/03/24 01:39:22;;;;;;;35.30;17.77;;;7.00;99.90;;;;;;5049525;28;20296;-84
2022/03/24 01:41:50;;;;;;;32.13;17.80;;;7.00;99.90;;;;;;5049155;28;21077;-87
2022/03/24 01:44:17;;;;;;;30.13;18.43;;;6.90;99.90;;;;;;5066282;28;20189;-83
2022/03/24 01:47:06;;;;;;;31.30;19.83;;;6.90;99.90;;;;;;5033005;28;20228;-90
2022/03/24 01:49:38;;;;;;;32.20;17.07;;;6.90;99.90;;;;;;5050406;28;20649;-87
2022/03/24 01:52:13;;;;;;;41.10;19.83;;;6.90;99.90;;;;;;5067355;28;20227;-84
2022/03/24 01:54:42;;;;;;;30.77;16.97;;;6.90;99.90;;;;;;5048907;28;20266;-84
2022/03/24 01:57:10;;;;;;;32.03;18.77;;;6.90;99.90;;;;;;5065521;28;20296;-87
2022/03/24 01:59:37;;;;;;;29.03;19.57;;;6.80;99.90;;;;;;5066107;28;20232;-83
2022/03/24 02:02:04;;;;;;;33.10;18.30;;;6.80;99.90;;;;;;5065708;28;20197;-87
2022/03/24 02:04:30;;;;;;;23.07;15.17;;;6.80;99.90;;;;;;5066228;28;20197;-90
2022/03/24 02:06:56;;;;;;;29.07;17.17;;;6.80;99.90;;;;;;5049083;28;20217;-84
2022/03/24 02:09:22;;;;;;;35.87;19.57;;;6.90;99.90;;;;;;5048626;28;20355;-89
2022/03/24 02:11:48;;;;;;;29.00;16.03;;;6.90;99.90;;;;;;5048034;28;20236;-85
2022/03/24 02:14:14;;;;;;;40.33;17.00;;;6.90;99.90;;;;;;5048800;28;20185;-84
2022/03/24 02:16:41;;;;;;;27.20;15.17;;;6.90;99.90;;;;;;5048970;28;20257;-87
2022/03/24 02:19:22;;;;;;;34.53;18.60;;;6.70;99.90;;;;;;5048730;28;20361;-83
2022/03/24 02:21:50;;;;;;;26.27;16.53;;;6.60;99.90;;;;;;5049025;28;20220;-86
2022/03/24 02:24:18;;;;;;;30.27;16.30;;;6.50;99.90;;;;;;5082742;28;20217;-84
2022/03/24 02:26:45;;;;;;;34.50;16.70;;;6.50;99.90;;;;;;5065145;28;20580;-83
2022/03/24 02:29:12;;;;;;;27.33;18.67;;;6.50;99.90;;;;;;5065803;28;21149;-86
2022/03/24 02:31:41;;;;;;;28.83;17.90;;;6.50;99.90;;;;;;5049546;28;20209;-84
2022/03/24 02:36:54;;;;;;;28.73;15.47;;;6.50;99.90;;;;;;5065803;28;20225;-84
2022/03/24 02:39:20;;;;;;;23.80;14.90;;;6.50;99.90;;;;;;5065561;28;20221;-84
2022/03/24 02:41:51;;;;;;;24.13;13.83;;;6.50;99.90;;;;;;5065185;28;20263;-87
2022/03/24 02:44:18;;;;;;;34.00;18.77;;;6.50;99.90;;;;;;5080499;28;20185;-84
2022/03/24 02:46:48;;;;;;;28.33;14.67;;;6.50;99.90;;;;;;5066221;28;20830;-92
2022/03/24 02:49:19;;;;;;;21.20;15.30;;;6.50;99.90;;;;;;5063756;28;20286;-88
2022/03/24 02:51:46;;;;;;;37.07;16.73;;;6.60;99.90;;;;;;5065262;28;20237;-85
2022/03/24 02:54:12;;;;;;;23.03;13.27;;;6.60;99.90;;;;;;5080576;28;20316;-84
2022/03/24 02:56:38;;;;;;;29.27;17.00;;;6.40;99.90;;;;;;5066124;28;20254;-83
2022/03/24 02:59:06;;;;;;;21.60;15.07;;;6.30;99.90;;;;;;5065909;28;20300;-84
2022/03/24 03:01:38;;;;;;;25.80;15.50;;;6.30;99.90;;;;;;5041810;28;20186;-91
2022/03/24 03:04:05;;;;;;;35.03;16.43;;;6.30;99.90;;;;;;5081216;28;20295;-86
2022/03/24 03:06:33;;;;;;;30.80;16.93;;;6.40;99.90;;;;;;5048106;28;20680;-87
2022/03/24 03:09:01;;;;;;;32.87;17.97;;;6.40;99.90;;;;;;5048073;28;20220;-84
2022/03/24 03:11:27;;;;;;;25.30;17.73;;;6.40;99.90;;;;;;5064694;28;20236;-83
2022/03/24 03:13:52;;;;;;;24.30;14.30;;;6.40;99.90;;;;;;5048151;28;20197;-88
2022/03/24 03:16:18;;;;;;;25.10;13.87;;;6.40;99.90;;;;;;5082070;28;20225;-84
2022/03/24 03:18:44;;;;;;;27.83;15.80;;;6.30;99.90;;;;;;5065620;28;20339;-87
2022/03/24 03:21:11;;;;;;;26.43;16.27;;;6.30;99.90;;;;;;5047867;28;20334;-85
2022/03/24 03:23:38;;;;;;;23.70;13.20;;;6.20;99.90;;;;;;5047607;28;20628;-85
2022/03/24 03:26:07;;;;;;;26.13;15.50;;;6.20;99.90;;;;;;5031383;28;20654;-85
2022/03/24 03:28:33;;;;;;;28.10;16.73;;;6.20;99.90;;;;;;5066017;28;20284;-85
2022/03/24 03:31:00;;;;;;;25.90;16.83;;;6.10;99.90;;;;;;5047722;28;20324;-86
2022/03/24 03:33:26;;;;;;;24.30;12.57;;;6.10;99.90;;;;;;5065483;28;20217;-85
2022/03/24 03:35:52;;;;;;;20.10;11.93;;;6.00;99.90;;;;;;5047314;28;20217;-88
2022/03/24 03:38:19;;;;;;;23.47;12.23;;;5.90;99.90;;;;;;5030868;28;20331;-90
2022/03/24 03:40:46;;;;;;;19.00;14.20;;;5.80;99.90;;;;;;5047111;28;20197;-84
2022/03/24 03:43:14;;;;;;;27.80;14.17;;;5.90;99.90;;;;;;5065698;28;20237;-84
2022/03/24 03:45:43;;;;;;;25.33;13.17;;;5.90;99.90;;;;;;5080161;28;20286;-84
2022/03/24 03:48:10;;;;;;;22.83;14.47;;;5.80;99.90;;;;;;5065384;28;20236;-87
2022/03/24 03:50:36;;;;;;;21.70;13.57;;;5.80;99.90;;;;;;5064724;28;20271;-84
2022/03/24 03:53:02;;;;;;;22.43;13.23;;;5.90;99.90;;;;;;5063792;28;20194;-84
2022/03/24 03:55:28;;;;;;;27.40;14.77;;;6.00;99.90;;;;;;5047220;28;20191;-91
2022/03/24 03:57:55;;;;;;;30.30;13.00;;;6.00;99.90;;;;;;5047044;28;20669;-87
2022/03/24 04:03:06;;;;;;;24.77;15.53;;;6.10;99.90;;;;;;5064992;28;20823;-84
2022/03/24 04:05:35;;;;;;;25.27;12.10;;;6.10;99.90;;;;;;5063663;28;20271;-84
2022/03/24 04:08:01;;;;;;;30.53;16.70;;;6.10;99.90;;;;;;5065421;28;20189;-84
2022/03/24 04:10:27;;;;;;;19.70;13.87;;;6.10;99.90;;;;;;5063806;28;20214;-84
2022/03/24 04:12:59;;;;;;;20.20;13.60;;;6.10;99.90;;;;;;5080501;28;20246;-85
2022/03/24 04:15:26;;;;;;;21.50;16.20;;;6.10;99.90;;;;;;5046607;28;20236;-85
2022/03/24 04:17:52;;;;;;;25.47;15.90;;;6.10;99.90;;;;;;5063673;28;20221;-84
2022/03/24 04:20:20;;;;;;;24.47;16.00;;;6.20;99.90;;;;;;5064183;28;20225;-84
2022/03/24 04:22:51;;;;;;;29.30;18.10;;;6.30;99.90;;;;;;5080889;28;20193;-88
2022/03/24 04:25:17;;;;;;;27.67;16.00;;;6.30;99.90;;;;;;5038728;28;20213;-84
2022/03/24 04:27:43;;;;;;;25.03;14.97;;;6.30;99.90;;;;;;5046393;28;21100;-90
2022/03/24 04:30:12;;;;;;;28.83;15.30;;;6.40;99.90;;;;;;5046296;28;20217;-83
2022/03/24 04:32:38;;;;;;;31.40;15.70;;;6.30;99.90;;;;;;5063866;28;20225;-85
2022/03/24 04:35:06;;;;;;;31.70;17.70;;;6.30;99.90;;;;;;5046057;28;20185;-84
2022/03/24 04:37:32;;;;;;;31.37;16.73;;;6.20;99.90;;;;;;5065389;28;20229;-85
2022/03/24 04:39:57;;;;;;;33.33;18.20;;;6.00;99.90;;;;;;5064616;28;20245;-84
2022/03/24 04:42:23;;;;;;;35.93;16.17;;;6.00;99.90;;;;;;5046033;28;20805;-84
2022/03/24 04:44:49;;;;;;;25.47;16.90;;;6.10;99.90;;;;;;5080340;28;20216;-85
2022/03/24 04:47:15;;;;;;;26.20;17.23;;;6.00;99.90;;;;;;5029328;28;20185;-85
2022/03/24 04:49:42;;;;;;;33.83;19.00;;;6.00;99.90;;;;;;5062835;28;20189;-90
2022/03/24 04:52:08;;;;;;;24.73;16.93;;;6.00;99.90;;;;;;5063087;28;20243;-83
2022/03/24 04:54:34;;;;;;;33.07;17.07;;;5.90;99.90;;;;;;5064299;28;20217;-86
2022/03/24 04:57:00;;;;;;;20.67;13.47;;;5.80;99.90;;;;;;5079829;28;20236;-90
2022/03/24 04:59:27;;;;;;;22.87;13.93;;;5.70;99.90;;;;;;5064304;28;20252;-83
2022/03/24 05:01:53;;;;;;;23.97;14.27;;;5.70;99.90;;;;;;5064201;28;20599;-84
2022/03/24 05:04:19;;;;;;;30.03;15.70;;;6.00;99.90;;;;;;5046189;28;20221;-85
2022/03/24 05:06:44;;;;;;;28.03;16.57;;;6.10;99.90;;;;;;5079277;28;20258;-85
2022/03/24 05:09:12;;;;;;;23.03;17.47;;;6.10;99.90;;;;;;5063073;28;20310;-84
2022/03/24 05:11:38;;;;;;;16.77;11.53;;;6.10;99.90;;;;;;5045317;28;20239;-86
2022/03/24 05:14:04;;;;;;;17.23;11.07;;;6.00;99.90;;;;;;5062403;28;20524;-87
2022/03/24 05:16:30;;;;;;;16.30;11.27;;;5.70;99.90;;;;;;5062092;28;20642;-85
2022/03/24 05:18:56;;;;;;;28.57;11.80;;;5.60;99.90;;;;;;5045134;28;20235;-83
2022/03/24 05:21:21;;;;;;;22.43;13.83;;;5.50;99.90;;;;;;5062972;28;20300;-83
2022/03/24 05:23:47;;;;;;;29.90;16.70;;;5.50;99.90;;;;;;5037712;28;20221;-88
2022/03/24 05:26:13;;;;;;;17.40;13.63;;;5.70;99.90;;;;;;5062466;28;20634;-88
2022/03/24 05:28:39;;;;;;;18.53;9.23;;;5.70;99.90;;;;;;5029210;28;20193;-87
2022/03/24 05:31:05;;;;;;;15.27;10.53;;;5.70;99.90;;;;;;5062539;28;20239;-84
2022/03/24 05:33:33;;;;;;;17.67;13.10;;;5.40;99.90;;;;;;5063403;28;20224;-83
2022/03/24 05:35:59;;;;;;;13.87;11.47;;;5.20;99.90;;;;;;5045230;28;20225;-83
2022/03/24 05:38:26;;;;;;;23.00;11.20;;;5.20;99.90;;;;;;5046916;28;20282;-84
2022/03/24 05:40:52;;;;;;;23.80;14.23;;;5.20;99.90;;;;;;5064409;28;20201;-85
2022/03/24 05:43:18;;;;;;;20.87;12.63;;;5.20;99.90;;;;;;5045541;28;20728;-86
2022/03/24 05:45:43;;;;;;;15.53;10.17;;;5.30;99.90;;;;;;5029201;28;20233;-84
2022/03/24 05:48:09;;;;;;;21.87;13.50;;;5.50;99.90;;;;;;5029007;28;20224;-83
2022/03/24 05:50:35;;;;;;;22.90;13.30;;;5.60;99.90;;;;;;5062229;28;20241;-85
2022/03/24 05:53:02;;;;;;;12.03;10.73;;;5.60;99.90;;;;;;5078744;28;20193;-83
2022/03/24 05:55:29;;;;;;;21.80;15.57;;;5.70;99.90;;;;;;5054830;28;20622;-86
2022/03/24 05:57:54;;;;;;;18.83;15.23;;;5.90;99.90;;;;;;5045685;28;20216;-86
2022/03/24 06:00:21;;;;;;;18.27;13.90;;;6.20;99.90;;;;;;5079290;28;20221;-83
2022/03/24 06:02:47;;;;;;;26.43;15.00;;;6.60;99.90;;;;;;5044828;28;20253;-84
2022/03/24 06:05:14;;;;;;;24.13;13.20;;;6.80;99.90;;;;;;5031038;28;20657;-84
2022/03/24 06:07:40;;;;;;;20.37;10.73;;;6.70;99.90;;;;;;5049344;28;20194;-84
2022/03/24 06:10:07;;;;;;;20.00;13.37;;;6.70;99.90;;;;;;5040177;28;20251;-86
2022/03/24 06:12:34;;;;;;;23.13;12.23;;;6.80;99.90;;;;;;5064859;28;20229;-83
2022/03/24 06:15:00;;;;;;;22.47;15.60;;;7.10;99.90;;;;;;5047104;28;20225;-84
2022/03/24 06:17:26;;;;;;;23.03;13.73;;;7.50;99.90;;;;;;5047380;28;21061;-84
2022/03/24 06:19:53;;;;;;;23.47;13.17;;;8.10;99.90;;;;;;5066946;28;20185;-84
2022/03/24 06:22:19;;;;;;;20.23;12.03;;;8.30;99.90;;;;;;5066193;28;20652;-86
2022/03/24 06:24:44;;;;;;;24.10;15.17;;;8.00;99.90;;;;;;5081615;28;20316;-85
2022/03/24 06:27:10;;;;;;;26.77;15.90;;;8.00;99.90;;;;;;5031488;28;20231;-85
2022/03/24 06:29:36;;;;;;;25.27;15.07;;;8.50;99.90;;;;;;5067387;28;20615;-87
2022/03/24 06:32:03;;;;;;;36.60;14.30;;;8.80;99.90;;;;;;5066556;28;20221;-89
2022/03/24 06:34:29;;;;;;;27.97;15.17;;;9.20;99.90;;;;;;5066037;28;20177;-83
2022/03/24 06:36:55;;;;;;;36.20;17.83;;;9.40;99.90;;;;;;5066364;28;20692;-85
2022/03/24 06:39:22;;;;;;;34.27;20.03;;;10.30;99.90;;;;;;5048270;28;20300;-84
2022/03/24 06:41:48;;;;;;;36.37;19.03;;;11.30;99.90;;;;;;5066263;28;20225;-84
2022/03/24 06:44:14;;;;;;;36.07;18.80;;;12.10;99.90;;;;;;5043442;28;20242;-84
2022/03/24 06:46:40;;;;;;;27.00;17.07;;;12.40;99.90;;;;;;5043204;28;20247;-86
2022/03/24 06:49:07;;;;;;;41.67;20.87;;;13.30;99.90;;;;;;5047387;28;20741;-89
2022/03/24 06:51:34;;;;;;;39.63;20.83;;;14.50;99.90;;;;;;5048537;28;20229;-83
2022/03/24 06:54:01;;;;;;;40.23;23.17;;;15.50;99.90;;;;;;5056234;28;20221;-88
2022/03/24 06:56:27;;;;;;;29.37;17.37;;;16.40;99.90;;;;;;5031909;28;20217;-86
2022/03/24 06:58:53;;;;;;;38.97;19.10;;;17.20;99.90;;;;;;5049145;28;20189;-87
2022/03/24 07:01:20;;;;;;;33.67;22.20;;;18.20;99.90;;;;;;5031177;28;20235;-87
2022/03/24 07:03:46;;;;;;;31.93;20.30;;;18.80;99.90;;;;;;5047989;28;20241;-85
2022/03/24 07:06:12;;;;;;;41.27;21.73;;;19.00;99.90;;;;;;5064830;28;20255;-84
2022/03/24 07:08:38;;;;;;;32.97;20.57;;;19.00;99.90;;;;;;5047498;28;20220;-87
2022/03/24 07:11:04;;;;;;;40.17;20.43;;;19.20;99.90;;;;;;5065185;28;20319;-84
2022/03/24 07:13:30;;;;;;;45.40;23.07;;;20.10;99.90;;;;;;5066497;28;21468;-85
2022/03/24 07:15:56;;;;;;;44.13;21.50;;;20.40;99.90;;;;;;5065707;28;20679;-90
2022/03/24 07:18:22;;;;;;;43.47;23.00;;;20.70;99.90;;;;;;5082276;28;20312;-85
2022/03/24 07:20:49;;;;;;;38.97;20.00;;;20.90;99.90;;;;;;5064651;28;20275;-85
2022/03/24 07:23:14;;;;;;;42.93;22.47;;;21.10;99.90;;;;;;5046860;28;20185;-88
2022/03/24 07:25:40;;;;;;;42.13;20.87;;;21.20;99.90;;;;;;5048649;28;20642;-82
2022/03/24 07:28:07;;;;;;;47.53;21.90;;;21.40;99.90;;;;;;5065294;28;20217;-91
2022/03/24 07:30:33;;;;;;;52.60;23.60;;;21.70;99.90;;;;;;5047425;28;20243;-87
2022/03/24 07:33:00;;;;;;;38.93;23.47;;;21.90;99.90;;;;;;5046803;28;20221;-86
2022/03/24 07:35:33;;;;;;;50.33;23.90;;;22.10;99.90;;;;;;5023147;28;20681;-86
2022/03/24 07:37:59;;;;;;;43.07;22.17;;;22.40;99.90;;;;;;5065686;28;20630;-88
2022/03/24 07:40:25;;;;;;;43.37;23.30;;;22.70;99.90;;;;;;5081838;28;20846;-86
2022/03/24 07:42:53;;;;;;;48.33;23.33;;;23.00;99.90;;;;;;5047686;28;20358;-85
2022/03/24 07:45:22;;;;;;;53.30;25.73;;;23.40;99.90;;;;;;5080688;28;20225;-86
2022/03/24 07:48:16;;;;;;;51.60;24.07;;;23.50;99.90;;;;;;5046831;28;20295;-91
2022/03/24 07:50:45;;;;;;;44.40;23.90;;;23.50;99.90;;;;;;5064945;28;20324;-92
2022/03/24 07:53:14;;;;;;;54.00;24.30;;;23.50;99.90;;;;;;5064583;28;20223;-86
2022/03/24 07:55:44;;;;;;;43.27;23.97;;;23.50;99.90;;;;;;5080290;28;20197;-87
2022/03/24 07:58:14;;;;;;;46.00;23.90;;;23.80;99.90;;;;;;5045506;28;20630;-87
2022/03/24 08:00:40;;;;;;;44.33;23.70;;;24.00;99.90;;;;;;5064250;28;20221;-87
2022/03/24 08:03:11;;;;;;;48.17;24.90;;;24.00;99.90;;;;;;5046617;28;20225;-86
2022/03/24 08:05:37;;;;;;;46.43;23.90;;;24.00;99.90;;;;;;5063728;28;20252;-87
2022/03/24 08:08:04;;;;;;;41.83;23.60;;;24.10;99.90;;;;;;5046359;28;20719;-86
2022/03/24 08:10:30;;;;;;;46.23;23.70;;;24.10;99.90;;;;;;5065293;28;20383;-91
2022/03/24 08:12:56;;;;;;;42.03;22.73;;;24.60;99.90;;;;;;5047206;28;20574;-85
2022/03/24 08:15:22;;;;;;;45.80;23.33;;;24.80;99.90;;;;;;5029867;28;20660;-91
2022/03/24 08:17:48;;;;;;;44.77;24.13;;;24.60;99.90;;;;;;5047266;28;20210;-86
2022/03/24 08:20:14;;;;;;;44.60;23.60;;;24.80;99.90;;;;;;5045262;28;20201;-88
2022/03/24 08:22:39;;;;;;;43.03;24.27;;;24.90;99.90;;;;;;5040385;28;20629;-86
2022/03/24 08:25:08;;;;;;;48.87;24.00;;;25.20;99.90;;;;;;5079928;28;20677;-87
2022/03/24 08:27:35;;;;;;;48.57;23.43;;;25.60;99.90;;;;;;5046173;28;20240;-89
2022/03/24 08:30:02;;;;;;;43.93;24.50;;;25.50;99.90;;;;;;5062479;28;20225;-90
2022/03/24 08:32:27;;;;;;;49.53;24.67;;;25.30;99.90;;;;;;5079597;28;20312;-86
2022/03/24 08:34:53;;;;;;;44.77;21.63;;;25.40;99.90;;;;;;5065610;28;20272;-90
2022/03/24 08:37:19;;;;;;;38.50;21.07;;;25.30;99.90;;;;;;5046948;28;21041;-90
2022/03/24 08:39:44;;;;;;;40.20;22.15;;;25.50;99.90;;;;;;5062593;28;20310;-90
2022/03/24 08:42:10;;;;;;;46.13;24.40;;;25.50;99.90;;;;;;5029180;28;20252;-90
2022/03/24 08:44:38;;;;;;;44.17;24.77;;;25.60;99.90;;;;;;5062873;28;20232;-90
2022/03/24 08:47:05;;;;;;;37.97;21.25;;;25.40;99.90;;;;;;5063859;28;20190;-88
2022/03/24 08:49:31;;;;;;;41.83;22.57;;;25.60;99.90;;;;;;5063860;28;20270;-89
2022/03/24 08:51:57;;;;;;;40.70;23.23;;;25.70;99.90;;;;;;5079952;28;20236;-86
2022/03/24 08:54:24;;;;;;;39.42;22.33;;;25.30;99.90;;;;;;5065148;28;20249;-86
2022/03/24 08:56:50;;;;;;;41.90;21.63;;;24.70;99.90;;;;;;5064535;28;20228;-85
2022/03/24 08:59:16;;;;;;;40.90;21.70;;;24.60;99.90;;;;;;5038866;28;21265;-86
2022/03/24 09:01:43;;;;;;;35.72;21.05;;;24.50;99.90;;;;;;5047621;28;20641;-85
2022/03/24 09:04:12;;;;;;;39.53;21.10;;;24.80;99.90;;;;;;5064504;28;20221;-86
2022/03/24 09:06:38;;;;;;;34.40;20.02;;;24.50;99.90;;;;;;5045651;28;20571;-86
2022/03/24 09:09:05;;;;;;;43.13;23.30;;;24.60;99.90;;;;;;5064199;28;20217;-86
2022/03/24 09:11:31;;;;;;;35.60;20.70;;;24.60;99.90;;;;;;5028884;28;20233;-87
2022/03/24 09:13:57;;;;;;;38.22;21.83;;;24.20;99.90;;;;;;5065405;28;20262;-86
2022/03/24 09:16:23;;;;;;;41.57;21.80;;;23.50;99.90;;;;;;5064091;28;20268;-84
2022/03/24 09:18:49;;;;;;;36.73;20.53;;;22.60;99.90;;;;;;5046284;28;20224;-87
2022/03/24 09:21:16;;;;;;;42.43;22.00;;;20.60;99.90;;;;;;5063343;28;20221;-88
2022/03/24 09:23:43;;;;;;;43.60;20.67;;;19.70;99.90;;;;;;5080714;28;20533;-85
2022/03/24 09:26:09;;;;;;;35.13;20.10;;;18.40;99.90;;;;;;5047092;28;20239;-86
2022/03/24 09:28:35;;;;;;;38.23;20.23;;;18.00;99.90;;;;;;5031252;28;20757;-86
2022/03/24 09:31:01;;;;;;;39.00;20.90;;;17.50;99.90;;;;;;5030399;28;20243;-93
2022/03/24 09:33:26;;;;;;;39.13;21.13;;;16.60;99.90;;;;;;5030164;28;20273;-85
2022/03/24 09:35:52;;;;;;;36.63;19.57;;;17.30;99.90;;;;;;5064810;28;20285;-86
2022/03/24 09:38:18;;;;;;;44.13;20.63;;;18.10;99.90;;;;;;5065029;28;20225;-90
2022/03/24 09:40:45;;;;;;;36.87;19.60;;;18.40;99.90;;;;;;5067981;28;20390;-91
2022/03/24 09:43:14;;;;;;;38.80;19.47;;;19.20;99.90;;;;;;5050077;28;20233;-93
2022/03/24 09:45:42;;;;;;;43.30;20.47;;;19.80;99.90;;;;;;5084429;28;20717;-93
2022/03/24 09:48:10;;;;;;;43.90;22.13;;;20.60;99.90;;;;;;5067443;28;20220;-91
2022/03/24 09:50:37;;;;;;;41.27;22.20;;;21.10;99.90;;;;;;5067687;28;20743;-90
2022/03/24 09:53:03;;;;;;;46.57;20.60;;;21.40;99.90;;;;;;5050403;28;20242;-92
2022/03/24 09:55:36;;;;;;;38.30;19.37;;;21.60;99.90;;;;;;5050794;28;20630;-93
2022/03/24 09:58:02;;;;;;;37.73;20.47;;;20.60;99.90;;;;;;5049446;28;20224;-91
2022/03/24 10:00:28;;;;;;;44.73;21.77;;;20.70;99.90;;;;;;5066974;28;20240;-87
2022/03/24 10:03:12;;;;;;;39.57;21.83;;;21.10;99.90;;;;;;5054572;28;20260;-92
2022/03/24 10:06:04;;;;;;;37.17;21.70;;;21.20;99.90;;;;;;5073824;28;20224;-93
2022/03/24 10:08:31;;;;;;;39.47;21.90;;;21.80;99.90;;;;;;5051220;28;20332;-92
2022/03/24 10:11:06;;;;;;;39.07;20.17;;;21.80;99.90;;;;;;5051255;28;20619;-92
2022/03/24 10:13:53;;;;;;;46.33;23.83;;;21.00;99.90;;;;;;5041481;28;20209;-92
2022/03/24 10:16:34;;;;;;;39.77;22.20;;;21.20;99.90;;;;;;5050156;28;20231;-92
2022/03/24 10:19:06;;;;;;;38.33;20.63;;;21.60;99.90;;;;;;5085494;28;20582;-93
2022/03/24 10:21:40;;;;;;;42.20;23.63;;;21.50;99.90;;;;;;5063065;28;20225;-93
2022/03/24 10:24:18;;;;;;;38.80;21.63;;;20.90;99.90;;;;;;5088600;28;20212;-93
2022/03/24 10:27:03;;;;;;;38.07;22.13;;;20.80;99.90;;;;;;5071839;28;20969;-87
2022/03/24 10:29:31;;;;;;;38.13;22.17;;;20.20;99.90;;;;;;5049376;28;20228;-87
2022/03/24 10:32:09;;;;;;;43.07;21.20;;;20.10;99.90;;;;;;5065600;28;20209;-87
2022/03/24 10:34:41;;;;;;;43.87;21.47;;;20.30;99.90;;;;;;5065107;28;20224;-91
2022/03/24 10:37:12;;;;;;;40.20;21.20;;;21.00;99.90;;;;;;5071103;28;20234;-93
2022/03/24 10:39:40;;;;;;;36.37;22.13;;;21.30;99.90;;;;;;5065034;28;20736;-94
2022/03/24 10:42:12;;;;;;;41.47;21.10;;;21.10;99.90;;;;;;5073188;28;20256;-93
2022/03/24 10:45:00;;;;;;;37.67;20.57;;;20.80;99.90;;;;;;5054587;28;20355;-93
2022/03/24 10:47:55;;;;;;;34.80;19.30;;;20.50;99.90;;;;;;5090451;28;20259;-93
2022/03/24 10:50:40;;;;;;;35.50;19.50;;;20.50;99.90;;;;;;5055418;28;20239;-92
2022/03/24 10:53:12;;;;;;;31.70;18.03;;;20.40;99.90;;;;;;5040955;28;20172;-91
2022/03/24 10:55:44;;;;;;;33.53;18.33;;;20.60;99.90;;;;;;5064975;28;20185;-92
2022/03/24 10:58:40;;;;;;;29.50;17.57;;;20.70;99.20;;;;;;5043320;28;20665;-91
2022/03/24 11:01:08;;;;;;;28.23;17.67;;;20.70;96.50;;;;;;5054377;28;20243;-93
2022/03/24 11:03:47;;;;;;;;;;;;;;;;;;;;;
2022/03/24 11:06:19;;;;;;;33.57;19.50;;;20.90;97.20;;;;;;5073515;28;20282;-93
2022/03/24 11:08:57;;;;;;;36.53;19.33;;;21.30;97.10;;;;;;5060350;28;20575;-92
2022/03/24 11:11:24;;;;;;;33.83;18.50;;;21.30;96.90;;;;;;5051393;28;20228;-93
2022/03/24 11:13:54;;;;;;;31.57;18.87;;;21.20;99.40;;;;;;5054204;28;20169;-92
2022/03/24 11:16:26;;;;;;;30.90;19.23;;;21.20;98.40;;;;;;5085173;28;20563;-90
2022/03/24 11:18:53;;;;;;;37.10;20.30;;;20.30;99.30;;;;;;5047440;28;20669;-90
2022/03/24 11:21:50;;;;;;;33.20;19.07;;;20.40;99.90;;;;;;5064251;28;20292;-90
2022/03/24 11:24:15;;;;;;;40.00;19.83;;;20.30;99.90;;;;;;5065434;28;20267;-90
2022/03/24 11:26:42;;;;;;;36.80;20.20;;;20.50;98.60;;;;;;5030911;28;20292;-87
2022/03/24 11:29:09;;;;;;;43.00;21.17;;;20.20;99.90;;;;;;5039131;28;20188;-87
2022/03/24 11:31:35;;;;;;;35.23;20.30;;;20.40;99.90;;;;;;5047580;28;20301;-88
2022/03/24 11:34:04;;;;;;;39.03;20.77;;;20.60;99.90;;;;;;5064212;28;20213;-86
2022/03/24 11:36:31;;;;;;;42.47;21.70;;;20.80;99.90;;;;;;5080226;28;20221;-87
2022/03/24 11:39:00;;;;;;;37.03;20.40;;;20.80;99.90;;;;;;5063413;28;20314;-88
2022/03/24 11:41:47;;;;;;;40.23;20.60;;;20.80;99.90;;;;;;5045675;28;20224;-90
2022/03/24 11:44:48;;;;;;;38.30;18.73;;;20.70;99.90;;;;;;5045457;28;20497;-90
2022/03/24 11:47:15;;;;;;;33.10;17.67;;;20.50;99.90;;;;;;5045206;28;20191;-88
2022/03/24 11:49:42;;;;;;;37.00;19.17;;;20.10;99.90;;;;;;5047373;28;20749;-89
2022/03/24 11:52:07;;;;;;;41.63;20.27;;;19.70;99.90;;;;;;5047002;28;20275;-87
2022/03/24 11:54:38;;;;;;;43.43;19.83;;;19.70;99.90;;;;;;5038217;28;20209;-88
2022/03/24 11:57:29;;;;;;;32.37;17.90;;;20.10;99.90;;;;;;5047184;28;20367;-88
2022/03/24 12:00:13;;;;;;;42.40;20.27;;;19.80;99.90;;;;;;5036240;28;20708;-88
2022/03/24 12:02:50;;;;;;;43.47;20.00;;;19.40;99.90;;;;;;5064541;28;20221;-89
2022/03/24 12:05:16;;;;;;;41.03;19.47;;;19.50;99.90;;;;;;5045801;28;20699;-87
2022/03/24 12:07:42;;;;;;;37.83;19.90;;;19.30;99.90;;;;;;5064664;28;20258;-87
2022/03/24 12:10:14;;;;;;;42.17;18.80;;;18.90;99.90;;;;;;5029726;28;20225;-87
2022/03/24 12:13:01;;;;;;;38.93;20.00;;;18.30;99.90;;;;;;5079943;28;20233;-87
2022/03/24 12:15:26;;;;;;;43.10;22.07;;;17.90;99.90;;;;;;5046219;28;20314;-88
2022/03/24 12:18:04;;;;;;;38.90;19.33;;;17.80;99.90;;;;;;5047212;28;20253;-86
2022/03/24 12:20:43;;;;;;;33.47;18.30;;;17.40;99.90;;;;;;5064597;28;20355;-86
2022/03/24 12:23:09;;;;;;;40.50;21.63;;;17.50;99.90;;;;;;5046152;28;20184;-87
2022/03/24 12:25:36;;;;;;;41.70;20.03;;;17.50;99.90;;;;;;5064205;28;20193;-87
2022/03/24 12:28:04;;;;;;;45.63;21.17;;;17.20;99.90;;;;;;5046529;28;20336;-88
2022/03/24 12:30:47;;;;;;;38.20;19.43;;;16.80;99.90;;;;;;5046244;28;20278;-87
2022/03/24 12:33:14;;;;;;;38.77;18.73;;;16.80;99.90;;;;;;5063533;28;20228;-91
2022/03/24 12:35:56;;;;;;;43.73;19.17;;;16.50;99.90;;;;;;5046773;28;20221;-88
2022/03/24 12:38:34;;;;;;;33.60;18.37;;;16.30;99.90;;;;;;5064293;28;21070;-91
2022/03/24 12:41:11;;;;;;;35.57;19.43;;;16.30;99.90;;;;;;5080069;28;20288;-88
2022/03/24 12:43:55;;;;;;;34.17;18.23;;;16.10;99.90;;;;;;5080642;28;20220;-87
2022/03/24 12:46:37;;;;;;;34.37;16.67;;;15.80;99.90;;;;;;5045701;28;20294;-88